Time;durP1;ratioP1;P1;durP2;ratioP2;P2;SDS_P1;SDS_P2;PMS_P1;PMS_P2;Temp;Humidity;BMP_temperature;BMP_pressure;BME280_temperature;BME280_humidity;BME280_pressure;Samples;Min_cycle;Max_cycle;Signal;HPM_P1;HPM_P2
2022/08/18 00:01:39;;;;;;;4.70;4.25;;;24.70;53.90;;;;;;5037491;28;20223;-78
2022/08/18 00:04:06;;;;;;;4.80;4.40;;;24.70;53.90;;;;;;5037224;28;20210;-79
2022/08/18 00:06:34;;;;;;;4.82;4.43;;;24.70;54.00;;;;;;5036257;28;20220;-77
2022/08/18 00:09:03;;;;;;;4.70;4.10;;;24.70;54.40;;;;;;5035924;28;20220;-77
2022/08/18 00:11:32;;;;;;;4.47;4.15;;;24.70;54.40;;;;;;5036109;28;20208;-79
2022/08/18 00:14:00;;;;;;;4.82;4.43;;;24.70;54.30;;;;;;5035999;28;20200;-78
2022/08/18 00:16:27;;;;;;;4.88;4.47;;;24.70;54.20;;;;;;5035954;28;20654;-77
2022/08/18 00:18:54;;;;;;;4.53;4.22;;;24.70;54.20;;;;;;5035814;28;20220;-77
2022/08/18 00:21:21;;;;;;;4.78;4.38;;;24.70;54.30;;;;;;5035611;28;20655;-79
2022/08/18 00:23:48;;;;;;;4.60;4.25;;;24.70;54.30;;;;;;5035881;28;20200;-78
2022/08/18 00:26:16;;;;;;;4.55;4.18;;;24.70;55.00;;;;;;5035194;28;20247;-79
2022/08/18 00:28:44;;;;;;;4.50;4.10;;;24.70;54.30;;;;;;5035595;28;20219;-79
2022/08/18 00:31:11;;;;;;;5.22;4.63;;;24.60;54.30;;;;;;5035630;28;20257;-78
2022/08/18 00:33:38;;;;;;;4.72;4.32;;;24.60;54.40;;;;;;5035778;28;20196;-79
2022/08/18 00:36:05;;;;;;;4.90;4.50;;;24.60;54.50;;;;;;5019961;28;20290;-79
2022/08/18 00:38:32;;;;;;;4.55;4.25;;;24.60;54.60;;;;;;5023678;28;20220;-77
2022/08/18 00:40:59;;;;;;;4.75;4.35;;;24.60;54.70;;;;;;5037668;28;20206;-79
2022/08/18 00:43:30;;;;;;;4.60;4.28;;;24.60;54.80;;;;;;5035144;28;20208;-77
2022/08/18 00:45:59;;;;;;;4.90;4.50;;;24.60;54.80;;;;;;5035119;28;20203;-77
2022/08/18 00:48:26;;;;;;;4.30;3.90;;;24.60;54.80;;;;;;5035629;28;20274;-79
2022/08/18 00:50:55;;;;;;;4.40;4.10;;;24.60;55.10;;;;;;5035285;28;20208;-78
2022/08/18 00:53:25;;;;;;;4.68;4.32;;;24.60;55.00;;;;;;5035198;28;20200;-77
2022/08/18 00:55:52;;;;;;;4.65;4.35;;;24.60;55.00;;;;;;5035629;28;20206;-79
2022/08/18 00:58:22;;;;;;;4.80;4.30;;;24.50;55.00;;;;;;5034801;28;20224;-78
2022/08/18 01:00:50;;;;;;;4.75;4.35;;;24.50;55.10;;;;;;5018686;28;20204;-79
2022/08/18 01:03:19;;;;;;;4.63;4.22;;;24.50;55.30;;;;;;5035244;28;20219;-79
2022/08/18 01:05:48;;;;;;;4.35;4.05;;;24.50;55.30;;;;;;5034707;28;20282;-77
2022/08/18 01:08:16;;;;;;;4.65;4.30;;;24.50;55.20;;;;;;5034577;28;20251;-79
2022/08/18 01:10:44;;;;;;;4.90;4.50;;;24.50;55.30;;;;;;5035089;28;20223;-79
2022/08/18 01:13:11;;;;;;;4.63;4.28;;;24.50;55.30;;;;;;5034807;28;20200;-77
2022/08/18 01:15:38;;;;;;;4.80;4.40;;;24.50;55.30;;;;;;5034307;28;20199;-79
2022/08/18 01:23:43;;;;;;;4.30;4.00;;;24.50;55.50;;;;;;5004742;28;20197;-78
2022/08/18 01:26:09;;;;;;;4.38;4.07;;;24.50;55.60;;;;;;5034293;28;20210;-79
2022/08/18 01:28:40;;;;;;;4.78;4.38;;;24.50;55.60;;;;;;5034158;28;20216;-77
2022/08/18 01:31:08;;;;;;;4.60;4.30;;;24.40;55.60;;;;;;5034369;28;20204;-79
2022/08/18 01:33:38;;;;;;;3.92;3.63;;;24.40;55.60;;;;;;5017567;28;20203;-77
2022/08/18 01:36:13;;;;;;;4.40;4.00;;;24.40;55.70;;;;;;5018164;28;20200;-79
2022/08/18 01:38:44;;;;;;;4.30;4.00;;;24.40;55.80;;;;;;5034601;28;20257;-78
2022/08/18 01:41:11;;;;;;;4.53;4.10;;;24.40;55.80;;;;;;5034926;28;20188;-77
2022/08/18 01:43:38;;;;;;;4.22;3.92;;;24.40;55.80;;;;;;5034033;28;20677;-77
2022/08/18 01:46:05;;;;;;;4.72;4.43;;;24.40;55.90;;;;;;5018083;28;20250;-77
2022/08/18 01:48:33;;;;;;;4.18;3.88;;;24.40;55.90;;;;;;5033812;28;20230;-77
2022/08/18 01:51:00;;;;;;;4.38;4.00;;;24.40;55.90;;;;;;5017736;28;20226;-77
2022/08/18 01:53:27;;;;;;;4.30;4.00;;;24.40;55.90;;;;;;5034431;28;20571;-77
2022/08/18 01:55:57;;;;;;;4.10;3.80;;;24.40;55.90;;;;;;5034178;28;20220;-78
2022/08/18 01:58:26;;;;;;;4.45;4.10;;;24.30;55.90;;;;;;5034623;28;20295;-78
2022/08/18 02:00:55;;;;;;;4.15;3.85;;;24.40;56.00;;;;;;5034110;28;20204;-79
2022/08/18 02:03:25;;;;;;;4.20;3.90;;;24.40;56.00;;;;;;5035196;28;20196;-78
2022/08/18 02:05:55;;;;;;;4.60;4.15;;;24.40;56.10;;;;;;5033653;28;20204;-78
2022/08/18 02:08:22;;;;;;;4.28;3.97;;;24.30;56.10;;;;;;5033473;28;20246;-79
2022/08/18 02:10:49;;;;;;;4.20;3.90;;;24.30;56.20;;;;;;5033983;28;20299;-79
2022/08/18 02:13:17;;;;;;;4.20;3.90;;;24.30;56.30;;;;;;5033661;28;20196;-77
2022/08/18 02:15:44;;;;;;;4.15;3.85;;;24.30;56.30;;;;;;5033454;28;20200;-78
2022/08/18 02:18:14;;;;;;;3.80;3.50;;;24.30;56.40;;;;;;5033428;28;20714;-79
2022/08/18 02:20:42;;;;;;;4.47;4.18;;;24.30;56.50;;;;;;5033601;28;20207;-79
2022/08/18 02:23:09;;;;;;;4.38;3.97;;;24.30;56.40;;;;;;5033481;28;20192;-79
2022/08/18 02:25:36;;;;;;;4.40;4.10;;;24.20;56.40;;;;;;5033451;28;20200;-79
2022/08/18 02:28:04;;;;;;;4.40;4.00;;;24.30;56.50;;;;;;5033188;28;20232;-78
2022/08/18 02:30:33;;;;;;;4.75;4.13;;;24.20;56.50;;;;;;5033521;28;20262;-79
2022/08/18 02:33:01;;;;;;;4.30;3.90;;;24.20;56.50;;;;;;5033242;28;20196;-77
2022/08/18 02:35:28;;;;;;;3.95;3.65;;;24.20;56.60;;;;;;5032951;28;20663;-78
2022/08/18 02:37:55;;;;;;;4.35;4.05;;;24.20;56.60;;;;;;5032967;28;20223;-77
2022/08/18 02:40:22;;;;;;;4.40;4.10;;;24.20;56.60;;;;;;5033463;28;20196;-78
2022/08/18 02:42:51;;;;;;;4.30;4.00;;;24.20;56.60;;;;;;5034103;28;20566;-78
2022/08/18 02:45:19;;;;;;;4.28;3.97;;;24.20;56.70;;;;;;5034068;28;20200;-78
2022/08/18 02:47:52;;;;;;;3.95;3.65;;;24.20;56.60;;;;;;5035193;28;20315;-79
2022/08/18 02:50:19;;;;;;;4.07;3.78;;;24.20;56.70;;;;;;5034196;28;20192;-77
2022/08/18 02:52:46;;;;;;;4.32;3.92;;;24.20;56.70;;;;;;5034705;28;20314;-79
2022/08/18 02:55:13;;;;;;;4.30;3.95;;;24.20;56.70;;;;;;5033411;28;20736;-79
2022/08/18 02:57:42;;;;;;;4.05;3.75;;;24.20;56.70;;;;;;5033102;28;20212;-77
2022/08/18 03:00:11;;;;;;;4.80;4.40;;;24.20;56.80;;;;;;5033226;28;20192;-78
2022/08/18 03:02:38;;;;;;;4.38;4.00;;;24.20;56.80;;;;;;5033058;28;20199;-79
2022/08/18 03:05:08;;;;;;;4.70;4.30;;;24.20;56.80;;;;;;5033252;28;20250;-77
2022/08/18 03:07:34;;;;;;;4.35;4.00;;;24.20;56.90;;;;;;5018493;28;20228;-79
2022/08/18 03:10:01;;;;;;;4.10;3.70;;;24.20;57.10;;;;;;5037225;28;20253;-79
2022/08/18 03:12:29;;;;;;;4.32;4.03;;;24.20;57.50;;;;;;5021242;28;20210;-79
2022/08/18 03:14:56;;;;;;;4.22;3.92;;;24.20;57.60;;;;;;5037869;28;20203;-79
2022/08/18 03:17:23;;;;;;;4.03;3.72;;;24.20;57.60;;;;;;5037471;28;20271;-78
2022/08/18 03:19:50;;;;;;;4.35;4.05;;;24.20;57.70;;;;;;5036702;28;20206;-78
2022/08/18 03:22:18;;;;;;;4.30;3.90;;;24.30;57.60;;;;;;5037013;28;20203;-77
2022/08/18 03:24:45;;;;;;;4.28;3.88;;;24.30;57.50;;;;;;5039487;28;20547;-79
2022/08/18 03:27:12;;;;;;;4.20;3.90;;;24.40;57.40;;;;;;5036187;28;20695;-78
2022/08/18 03:29:39;;;;;;;4.40;4.10;;;24.40;57.20;;;;;;5036289;28;20257;-79
2022/08/18 03:32:07;;;;;;;4.88;4.35;;;24.50;56.90;;;;;;5036340;28;20283;-77
2022/08/18 03:34:34;;;;;;;4.15;3.85;;;24.60;56.90;;;;;;5036193;28;20204;-78
2022/08/18 03:37:02;;;;;;;4.10;3.80;;;24.60;56.80;;;;;;5036240;28;20263;-79
2022/08/18 03:39:30;;;;;;;4.57;4.18;;;24.70;56.80;;;;;;5019640;28;20729;-79
2022/08/18 03:41:58;;;;;;;4.45;4.03;;;24.70;56.60;;;;;;5036031;28;20196;-78
2022/08/18 03:44:25;;;;;;;4.07;3.78;;;24.70;56.80;;;;;;5036422;28;20192;-79
2022/08/18 03:46:52;;;;;;;4.40;4.10;;;24.80;56.40;;;;;;5036141;28;20206;-78
2022/08/18 03:49:19;;;;;;;4.07;3.78;;;24.80;56.30;;;;;;5035683;28;20590;-78
2022/08/18 03:51:47;;;;;;;4.20;3.90;;;24.80;56.80;;;;;;5036249;28;20196;-77
2022/08/18 03:54:15;;;;;;;4.20;3.90;;;24.80;56.20;;;;;;5019849;28;20206;-79
2022/08/18 03:56:44;;;;;;;7.22;3.75;;;24.80;56.20;;;;;;5036114;28;20655;-79
2022/08/18 03:59:12;;;;;;;4.47;4.07;;;24.80;56.20;;;;;;5037459;28;20299;-77
2022/08/18 04:01:40;;;;;;;4.20;3.90;;;24.80;56.20;;;;;;5037741;28;20195;-78
2022/08/18 04:04:08;;;;;;;4.10;3.80;;;24.80;56.20;;;;;;5036625;28;20228;-79
2022/08/18 04:06:38;;;;;;;4.70;4.30;;;24.70;56.20;;;;;;5035766;28;20207;-77
2022/08/18 04:09:07;;;;;;;4.20;3.90;;;24.80;56.20;;;;;;5035861;28;20236;-79
2022/08/18 04:11:34;;;;;;;4.20;3.80;;;24.80;56.20;;;;;;5035750;28;20206;-79
2022/08/18 04:14:03;;;;;;;4.13;3.83;;;24.70;56.20;;;;;;5035716;28;20207;-79
2022/08/18 04:16:31;;;;;;;4.28;3.97;;;24.70;56.20;;;;;;5035779;28;20570;-77
2022/08/18 04:19:00;;;;;;;4.32;4.03;;;24.70;56.20;;;;;;5035460;28;20216;-77
2022/08/18 04:21:30;;;;;;;4.20;3.80;;;24.70;56.20;;;;;;5035978;28;20204;-77
2022/08/18 04:23:58;;;;;;;4.15;3.85;;;24.70;56.20;;;;;;5019825;28;20693;-79
2022/08/18 04:26:25;;;;;;;4.20;3.80;;;24.70;56.30;;;;;;5035442;28;20204;-78
2022/08/18 04:28:52;;;;;;;4.40;4.10;;;24.70;56.40;;;;;;5035911;28;20234;-77
2022/08/18 04:31:23;;;;;;;4.13;3.83;;;24.70;56.40;;;;;;5019147;28;20207;-79
2022/08/18 04:33:50;;;;;;;4.38;4.07;;;24.60;56.90;;;;;;5034566;28;20647;-78
2022/08/18 04:36:17;;;;;;;4.47;4.07;;;24.60;56.40;;;;;;5034272;28;20627;-79
2022/08/18 04:38:44;;;;;;;3.97;3.67;;;24.60;56.50;;;;;;5034162;28;20223;-79
2022/08/18 04:41:12;;;;;;;4.07;3.72;;;24.60;56.60;;;;;;5035519;28;20184;-78
2022/08/18 04:43:39;;;;;;;4.25;3.95;;;24.50;56.50;;;;;;5034505;28;20204;-79
2022/08/18 04:46:06;;;;;;;4.30;4.00;;;24.50;56.50;;;;;;5034570;28;20207;-78
2022/08/18 04:48:36;;;;;;;4.78;4.30;;;24.50;56.60;;;;;;5034170;28;20579;-79
2022/08/18 04:51:07;;;;;;;4.45;3.88;;;24.50;56.60;;;;;;5034029;28;20570;-78
2022/08/18 04:53:45;;;;;;;4.30;4.00;;;24.50;56.70;;;;;;5034092;28;20200;-79
2022/08/18 04:56:19;;;;;;;4.10;3.80;;;24.50;56.80;;;;;;5034076;28;20196;-77
2022/08/18 04:58:51;;;;;;;4.55;4.15;;;24.40;56.70;;;;;;5033833;28;20212;-79
2022/08/18 05:01:18;;;;;;;4.50;4.20;;;24.40;56.60;;;;;;5033883;28;20222;-78
2022/08/18 05:03:46;;;;;;;4.43;3.85;;;24.40;56.60;;;;;;5033856;28;20223;-79
2022/08/18 05:06:13;;;;;;;4.43;4.03;;;24.40;56.80;;;;;;5033833;28;20323;-78
2022/08/18 05:08:40;;;;;;;4.65;4.25;;;24.50;56.80;;;;;;5033729;28;20223;-80
2022/08/18 05:11:08;;;;;;;4.47;4.10;;;24.40;56.60;;;;;;5033767;28;20231;-78
2022/08/18 05:13:35;;;;;;;4.15;3.85;;;24.50;56.70;;;;;;5033745;28;20291;-80
2022/08/18 05:16:03;;;;;;;4.43;4.03;;;24.50;56.60;;;;;;5001460;28;20279;-80
2022/08/18 05:18:30;;;;;;;4.53;4.13;;;24.50;56.70;;;;;;5017364;28;20222;-80
2022/08/18 05:21:00;;;;;;;4.10;3.80;;;24.50;56.60;;;;;;5033423;28;20215;-79
2022/08/18 05:23:28;;;;;;;4.13;3.72;;;24.50;56.70;;;;;;5034147;28;20222;-78
2022/08/18 05:25:57;;;;;;;4.47;4.18;;;24.60;56.80;;;;;;5033447;28;20204;-78
2022/08/18 05:28:24;;;;;;;4.72;4.10;;;24.60;56.60;;;;;;5033258;28;20586;-79
2022/08/18 05:30:51;;;;;;;4.30;4.00;;;24.70;56.40;;;;;;4997037;28;1056736;-78
2022/08/18 05:33:18;;;;;;;4.88;4.47;;;24.80;56.10;;;;;;5018787;28;20192;-78
2022/08/18 05:35:47;;;;;;;4.38;4.07;;;25.00;56.00;;;;;;5034292;28;20663;-78
2022/08/18 05:38:38;;;;;;;4.35;4.05;;;25.00;55.70;;;;;;5034075;28;20212;-78
2022/08/18 05:41:08;;;;;;;4.50;4.20;;;25.20;55.50;;;;;;5034013;28;20288;-78
2022/08/18 05:43:36;;;;;;;4.40;4.10;;;25.30;55.30;;;;;;5034670;28;20196;-79
2022/08/18 05:46:04;;;;;;;4.50;4.20;;;25.40;55.00;;;;;;5017180;28;20203;-78
2022/08/18 05:48:31;;;;;;;4.18;3.88;;;25.60;54.60;;;;;;5033757;28;20220;-78
2022/08/18 05:51:01;;;;;;;4.65;4.25;;;25.70;54.40;;;;;;5034542;28;20350;-81
2022/08/18 05:58:59;;;;;;;4.63;4.20;;;25.90;53.70;;;;;;5033513;28;20216;-79
2022/08/18 06:01:29;;;;;;;4.38;3.97;;;26.00;53.70;;;;;;5033742;28;20207;-78
2022/08/18 06:03:58;;;;;;;5.00;4.60;;;26.00;53.60;;;;;;5033935;28;20238;-80
2022/08/18 06:06:28;;;;;;;4.32;4.00;;;26.00;53.50;;;;;;5033315;28;20202;-79
2022/08/18 06:09:08;;;;;;;4.15;3.85;;;26.10;53.50;;;;;;5044122;28;20204;-79
2022/08/18 06:11:34;;;;;;;4.45;4.15;;;26.20;53.40;;;;;;5035376;28;20615;-79
2022/08/18 06:14:01;;;;;;;4.63;4.10;;;26.20;53.40;;;;;;5033816;28;20673;-79
2022/08/18 06:16:38;;;;;;;4.43;4.13;;;26.20;53.20;;;;;;5033346;28;20283;-78
2022/08/18 06:19:11;;;;;;;4.72;4.32;;;26.30;53.20;;;;;;5033166;28;20309;-78
2022/08/18 06:21:41;;;;;;;4.35;3.95;;;26.30;53.10;;;;;;5034918;28;20188;-80
2022/08/18 06:24:17;;;;;;;4.40;4.10;;;26.30;53.10;;;;;;5034483;28;20191;-77
2022/08/18 06:26:47;;;;;;;4.55;4.15;;;26.20;53.10;;;;;;5033237;28;20192;-80
2022/08/18 06:29:23;;;;;;;4.28;3.97;;;26.20;53.20;;;;;;5033363;28;20224;-78
2022/08/18 06:31:54;;;;;;;4.38;4.07;;;26.30;53.10;;;;;;5033436;28;20191;-80
2022/08/18 06:34:24;;;;;;;4.63;4.25;;;26.30;53.00;;;;;;5033382;28;20204;-78
2022/08/18 06:36:53;;;;;;;6.20;5.60;;;26.30;52.90;;;;;;5033149;28;20623;-79
2022/08/18 06:39:25;;;;;;;7.03;6.32;;;26.40;54.20;;;;;;5033083;28;20226;-79
2022/08/18 06:41:53;;;;;;;7.57;6.97;;;26.30;56.20;;;;;;5032062;28;20196;-79
2022/08/18 06:44:23;;;;;;;8.02;6.97;;;26.20;56.80;;;;;;5032786;28;20294;-81
2022/08/18 06:47:03;;;;;;;7.03;6.38;;;26.20;57.50;;;;;;5033152;28;20283;-77
2022/08/18 06:49:39;;;;;;;7.07;6.38;;;26.10;57.30;;;;;;5045945;28;20231;-80
2022/08/18 06:52:20;;;;;;;6.70;6.18;;;26.00;57.20;;;;;;5040457;28;20242;-79
2022/08/18 06:54:49;;;;;;;6.97;6.38;;;25.90;57.60;;;;;;5034048;28;20279;-77
2022/08/18 06:57:22;;;;;;;6.80;6.20;;;25.90;57.80;;;;;;5032653;28;20265;-78
2022/08/18 06:59:55;;;;;;;6.88;6.38;;;25.80;57.80;;;;;;5033174;28;20184;-78
2022/08/18 07:02:23;;;;;;;6.68;6.05;;;25.60;58.30;;;;;;5033511;28;20196;-77
2022/08/18 07:05:00;;;;;;;7.22;6.57;;;25.50;58.10;;;;;;5032433;28;20200;-78
2022/08/18 07:07:32;;;;;;;7.28;6.60;;;25.40;58.90;;;;;;5033120;28;20603;-77
2022/08/18 07:10:01;;;;;;;7.65;6.95;;;25.30;59.70;;;;;;5032488;28;20216;-79
2022/08/18 07:12:29;;;;;;;8.68;7.35;;;25.20;60.50;;;;;;5031787;28;20452;-76
2022/08/18 07:14:56;;;;;;;8.20;7.38;;;25.10;59.70;;;;;;5032752;28;20215;-77
2022/08/18 07:17:25;;;;;;;8.07;7.28;;;25.10;60.20;;;;;;5032582;28;20201;-79
2022/08/18 07:20:02;;;;;;;7.00;6.50;;;25.00;59.60;;;;;;5032701;28;20250;-79
2022/08/18 07:22:28;;;;;;;7.85;7.13;;;24.90;60.30;;;;;;5032401;28;20294;-78
2022/08/18 07:24:57;;;;;;;7.07;6.38;;;24.90;60.50;;;;;;5032167;28;20207;-79
2022/08/18 07:27:41;;;;;;;6.72;6.13;;;24.90;60.20;;;;;;5032382;28;20196;-77
2022/08/18 07:30:10;;;;;;;6.97;5.22;;;25.00;59.70;;;;;;5032439;28;20242;-78
2022/08/18 07:32:40;;;;;;;5.55;5.03;;;25.00;58.50;;;;;;5032791;28;20200;-79
2022/08/18 07:35:08;;;;;;;7.28;5.15;;;25.10;58.60;;;;;;5032394;28;20665;-76
2022/08/18 07:37:36;;;;;;;8.10;5.00;;;25.10;58.40;;;;;;5032708;28;20216;-77
2022/08/18 07:40:18;;;;;;;5.15;4.65;;;25.20;57.90;;;;;;5032475;28;20188;-79
2022/08/18 07:42:49;;;;;;;5.70;5.07;;;25.30;57.90;;;;;;5032392;28;20708;-80
2022/08/18 07:45:19;;;;;;;5.22;4.80;;;25.30;57.80;;;;;;5034075;28;20215;-77
2022/08/18 07:47:50;;;;;;;6.40;5.25;;;25.30;57.60;;;;;;5033575;28;20219;-77
2022/08/18 07:50:17;;;;;;;5.40;4.90;;;25.30;57.40;;;;;;5032487;28;20217;-77
2022/08/18 07:52:47;;;;;;;7.20;4.90;;;25.40;57.50;;;;;;5032917;28;20654;-77
2022/08/18 07:55:20;;;;;;;5.53;4.68;;;25.40;57.40;;;;;;5037421;28;20294;-77
2022/08/18 07:57:52;;;;;;;6.10;5.47;;;25.40;57.40;;;;;;5035908;28;20231;-78
2022/08/18 08:00:21;;;;;;;5.13;4.72;;;25.40;57.50;;;;;;5036181;28;20189;-77
2022/08/18 08:02:53;;;;;;;5.20;4.70;;;25.40;57.50;;;;;;5035868;28;20195;-77
2022/08/18 08:05:24;;;;;;;5.03;4.63;;;25.40;57.40;;;;;;5036421;28;20196;-77
2022/08/18 08:07:54;;;;;;;6.70;5.25;;;25.40;57.30;;;;;;5036907;28;20228;-79
2022/08/18 08:10:30;;;;;;;5.28;4.80;;;25.40;57.30;;;;;;5040700;28;20258;-77
2022/08/18 08:13:12;;;;;;;5.03;4.53;;;25.40;57.30;;;;;;5037013;28;20199;-79
2022/08/18 08:15:48;;;;;;;5.25;4.85;;;25.40;57.30;;;;;;5037850;28;20196;-79
2022/08/18 08:18:17;;;;;;;5.35;4.55;;;25.40;57.40;;;;;;5035680;28;20219;-80
2022/08/18 08:20:47;;;;;;;5.95;4.30;;;25.30;57.30;;;;;;5037178;28;20232;-77
2022/08/18 08:23:18;;;;;;;5.20;4.80;;;25.30;57.20;;;;;;5036071;28;20659;-78
2022/08/18 08:25:51;;;;;;;5.20;4.80;;;25.30;57.30;;;;;;5035547;28;20207;-79
2022/08/18 08:28:27;;;;;;;5.10;4.70;;;25.30;57.20;;;;;;5018900;28;20216;-79
2022/08/18 08:31:00;;;;;;;4.88;4.38;;;25.30;57.20;;;;;;5035364;28;20204;-77
2022/08/18 08:33:30;;;;;;;5.00;4.57;;;25.30;57.10;;;;;;5036428;28;20200;-77
2022/08/18 08:35:59;;;;;;;4.97;4.55;;;25.30;57.10;;;;;;5035225;28;20196;-77
2022/08/18 08:38:31;;;;;;;4.72;4.30;;;25.30;57.10;;;;;;5034924;28;20270;-78
2022/08/18 08:41:02;;;;;;;5.05;4.53;;;25.30;57.10;;;;;;5018812;28;20223;-79
2022/08/18 08:43:33;;;;;;;5.32;4.88;;;25.30;57.10;;;;;;5034982;28;20279;-78
2022/08/18 08:46:07;;;;;;;5.68;5.18;;;25.30;57.00;;;;;;5035419;28;20193;-79
2022/08/18 08:48:36;;;;;;;5.68;5.18;;;25.30;56.90;;;;;;5034847;28;20274;-77
2022/08/18 08:51:06;;;;;;;5.20;4.70;;;25.40;56.90;;;;;;5034887;28;20208;-79
2022/08/18 08:53:37;;;;;;;5.70;4.95;;;25.50;57.10;;;;;;5035338;28;20200;-77
2022/08/18 08:56:07;;;;;;;6.05;5.53;;;25.40;56.90;;;;;;5034869;28;20222;-79
2022/08/18 08:58:38;;;;;;;5.45;4.95;;;25.50;56.80;;;;;;5034337;28;20216;-78
2022/08/18 09:01:05;;;;;;;6.78;5.28;;;25.50;56.50;;;;;;5034483;28;20194;-77
2022/08/18 09:03:39;;;;;;;5.88;5.40;;;25.50;56.40;;;;;;5035701;28;20551;-77
2022/08/18 09:06:12;;;;;;;5.78;5.00;;;25.60;56.30;;;;;;5033465;28;20634;-79
2022/08/18 09:08:47;;;;;;;6.15;5.28;;;25.60;56.20;;;;;;5034586;28;20212;-78
2022/08/18 09:11:31;;;;;;;5.70;5.20;;;25.70;56.30;;;;;;5034816;28;20720;-79
2022/08/18 09:14:36;;;;;;;5.82;5.22;;;25.70;56.20;;;;;;5035055;28;20296;-78
2022/08/18 09:17:13;;;;;;;5.82;5.30;;;25.70;56.00;;;;;;5034677;28;20199;-78
2022/08/18 09:19:57;;;;;;;5.35;4.90;;;25.80;55.90;;;;;;5034534;28;20184;-80
2022/08/18 09:22:29;;;;;;;4.93;4.43;;;26.00;55.70;;;;;;5035665;28;20601;-76
2022/08/18 09:24:57;;;;;;;5.63;4.90;;;26.10;55.30;;;;;;5034875;28;20188;-80
2022/08/18 09:27:31;;;;;;;5.13;4.63;;;26.30;54.90;;;;;;5035669;28;20203;-80
2022/08/18 09:30:00;;;;;;;6.45;4.95;;;26.40;54.30;;;;;;5035113;28;20223;-78
2022/08/18 09:32:50;;;;;;;5.00;4.55;;;26.60;53.90;;;;;;5018670;28;20620;-79
2022/08/18 09:35:25;;;;;;;5.28;4.88;;;26.70;53.50;;;;;;5034940;28;20196;-80
2022/08/18 09:43:28;;;;;;;4.95;4.55;;;27.10;52.50;;;;;;5034702;28;20217;-78
2022/08/18 09:45:58;;;;;;;5.20;4.80;;;27.10;52.30;;;;;;5034568;28;20570;-79
2022/08/18 09:48:28;;;;;;;5.10;4.60;;;27.10;52.10;;;;;;5017955;28;20305;-79
2022/08/18 09:50:57;;;;;;;5.40;4.90;;;27.20;52.00;;;;;;5034722;28;20222;-79
2022/08/18 09:53:52;;;;;;;4.88;4.47;;;27.20;51.80;;;;;;5034578;28;20643;-78
2022/08/18 09:56:53;;;;;;;4.80;4.40;;;27.20;51.60;;;;;;5034653;28;20210;-78
2022/08/18 09:59:59;;;;;;;4.78;4.38;;;27.20;51.60;;;;;;5034240;28;20355;-78
2022/08/18 10:03:05;;;;;;;5.20;4.32;;;27.20;51.40;;;;;;5035256;28;20198;-80
2022/08/18 10:05:35;;;;;;;4.90;4.47;;;27.20;51.60;;;;;;5030712;28;20207;-80
2022/08/18 10:08:26;;;;;;;4.93;4.40;;;27.30;51.40;;;;;;5033677;28;20212;-81
2022/08/18 10:10:55;;;;;;;4.95;4.55;;;27.40;51.20;;;;;;5033719;28;20635;-79
2022/08/18 10:13:23;;;;;;;5.00;4.50;;;27.50;50.90;;;;;;5034487;28;20195;-80
2022/08/18 10:15:59;;;;;;;5.03;4.63;;;27.50;50.70;;;;;;5034082;28;20681;-81
2022/08/18 10:18:40;;;;;;;4.93;4.43;;;27.60;50.50;;;;;;5034050;28;20302;-78
2022/08/18 10:21:27;;;;;;;4.90;4.50;;;27.60;50.30;;;;;;5040082;28;20191;-81
2022/08/18 10:23:56;;;;;;;4.78;4.38;;;27.60;50.20;;;;;;5033635;28;20214;-79
2022/08/18 10:27:05;;;;;;;6.93;4.47;;;27.70;50.20;;;;;;5034610;28;20595;-80
2022/08/18 10:29:50;;;;;;;4.63;4.32;;;27.70;50.30;;;;;;5016909;28;20325;-80
2022/08/18 10:32:39;;;;;;;4.82;4.32;;;27.70;50.20;;;;;;5034017;28;20203;-79
2022/08/18 10:35:52;;;;;;;4.75;4.22;;;27.70;50.00;;;;;;5030571;28;20203;-80
2022/08/18 10:38:38;;;;;;;4.80;4.40;;;27.80;49.80;;;;;;5033983;28;20318;-80
2022/08/18 10:41:09;;;;;;;4.57;4.07;;;27.70;49.70;;;;;;5033219;28;20257;-80
2022/08/18 10:43:40;;;;;;;4.38;3.97;;;27.80;49.80;;;;;;5034012;28;20620;-80
2022/08/18 10:46:14;;;;;;;4.85;4.35;;;27.80;49.70;;;;;;5036111;28;20262;-78
2022/08/18 10:48:41;;;;;;;4.72;4.32;;;27.70;50.20;;;;;;5034969;28;20226;-80
2022/08/18 10:51:14;;;;;;;4.50;4.10;;;27.80;49.60;;;;;;5034437;28;20211;-80
2022/08/18 10:53:44;;;;;;;4.88;4.38;;;27.80;49.70;;;;;;5034810;28;20196;-79
2022/08/18 10:56:18;;;;;;;4.60;4.28;;;27.80;49.70;;;;;;5034008;28;20219;-80
2022/08/18 10:59:01;;;;;;;4.47;4.07;;;27.80;49.50;;;;;;5033685;28;20253;-78
2022/08/18 11:01:36;;;;;;;4.53;4.22;;;27.80;49.40;;;;;;5034443;28;20223;-80
2022/08/18 11:04:07;;;;;;;4.40;4.10;;;27.80;49.50;;;;;;5034851;28;20570;-80
2022/08/18 11:06:40;;;;;;;4.82;4.43;;;27.80;49.50;;;;;;5034419;28;20708;-80
2022/08/18 11:09:09;;;;;;;4.38;4.00;;;27.80;49.30;;;;;;5033852;28;20313;-79
2022/08/18 11:11:41;;;;;;;4.43;4.03;;;27.80;49.40;;;;;;5034301;28;20203;-80
2022/08/18 11:14:15;;;;;;;4.38;4.07;;;27.80;49.30;;;;;;5034186;28;20633;-80
2022/08/18 11:16:49;;;;;;;4.18;3.88;;;27.80;49.30;;;;;;5034302;28;20191;-80
2022/08/18 11:19:16;;;;;;;4.40;4.10;;;27.80;49.20;;;;;;5035080;28;20216;-80
2022/08/18 11:21:44;;;;;;;4.60;4.20;;;27.80;49.20;;;;;;5034155;28;20203;-79
2022/08/18 11:24:15;;;;;;;4.57;4.18;;;27.80;49.30;;;;;;5034467;28;20192;-78
2022/08/18 11:26:44;;;;;;;4.50;4.20;;;27.80;49.40;;;;;;5034123;28;20278;-78
2022/08/18 11:29:25;;;;;;;4.40;4.00;;;27.80;49.30;;;;;;5036556;28;20230;-81
2022/08/18 11:31:56;;;;;;;4.68;4.38;;;27.80;49.40;;;;;;5037935;28;20283;-80
2022/08/18 11:34:27;;;;;;;5.20;4.47;;;27.70;49.30;;;;;;5037070;28;20183;-80
2022/08/18 11:36:58;;;;;;;4.60;4.30;;;27.70;49.30;;;;;;5037225;28;20202;-79
2022/08/18 11:39:26;;;;;;;4.22;3.92;;;27.70;49.40;;;;;;5037412;28;20588;-80
2022/08/18 11:41:54;;;;;;;4.25;3.95;;;27.70;49.40;;;;;;5037219;28;20207;-80
2022/08/18 11:44:23;;;;;;;4.47;4.07;;;27.70;49.50;;;;;;5036687;28;20199;-80
2022/08/18 11:46:51;;;;;;;4.72;4.32;;;27.70;49.50;;;;;;5020438;28;20219;-80
2022/08/18 11:49:20;;;;;;;4.40;4.10;;;27.70;49.50;;;;;;5036109;28;20258;-78
2022/08/18 11:51:56;;;;;;;4.55;4.20;;;27.70;49.60;;;;;;5036742;28;20204;-80
2022/08/18 11:54:23;;;;;;;4.65;4.32;;;27.70;49.50;;;;;;5036714;28;20650;-80
2022/08/18 11:56:51;;;;;;;4.60;4.30;;;27.60;49.50;;;;;;5037052;28;20199;-79
2022/08/18 11:59:32;;;;;;;4.50;4.18;;;27.70;49.40;;;;;;5037143;28;20215;-78
2022/08/18 12:01:59;;;;;;;4.63;4.30;;;27.70;49.50;;;;;;5037159;28;20207;-79
2022/08/18 12:04:29;;;;;;;4.53;4.13;;;27.70;49.40;;;;;;5037311;28;20200;-79
2022/08/18 12:06:59;;;;;;;4.90;4.50;;;27.60;49.40;;;;;;5037041;28;20226;-81
2022/08/18 12:09:33;;;;;;;4.53;4.22;;;27.70;49.50;;;;;;5036466;28;20222;-79
2022/08/18 12:12:03;;;;;;;4.72;4.28;;;27.70;49.50;;;;;;5037318;28;20286;-80
2022/08/18 12:14:31;;;;;;;4.47;4.18;;;27.60;49.40;;;;;;5036414;28;20200;-80
2022/08/18 12:16:58;;;;;;;4.65;4.35;;;27.60;49.40;;;;;;5036584;28;20191;-78
2022/08/18 12:19:26;;;;;;;4.90;4.50;;;27.70;49.40;;;;;;5036368;28;20221;-80
2022/08/18 12:21:54;;;;;;;4.97;4.57;;;27.60;49.30;;;;;;5035881;28;20267;-80
2022/08/18 12:24:22;;;;;;;4.85;4.50;;;27.60;49.40;;;;;;5037241;28;20191;-80
2022/08/18 12:26:49;;;;;;;4.82;4.50;;;27.60;49.30;;;;;;5036532;28;20199;-80
2022/08/18 12:29:18;;;;;;;4.90;4.53;;;27.60;49.40;;;;;;5037059;28;20223;-79
2022/08/18 12:31:45;;;;;;;5.15;4.65;;;27.60;49.40;;;;;;5036537;28;20242;-80
2022/08/18 12:34:12;;;;;;;5.13;4.72;;;27.50;49.30;;;;;;5036922;28;20286;-79
2022/08/18 12:36:39;;;;;;;4.80;4.40;;;27.50;49.40;;;;;;5036991;28;20658;-79
2022/08/18 12:39:07;;;;;;;5.45;5.07;;;27.60;49.40;;;;;;5036809;28;20219;-81
2022/08/18 12:41:34;;;;;;;4.63;4.28;;;27.60;49.30;;;;;;5037573;28;20554;-79
2022/08/18 12:44:01;;;;;;;4.88;4.53;;;27.60;49.30;;;;;;5036254;28;20611;-79
2022/08/18 12:46:29;;;;;;;5.05;4.75;;;27.50;49.30;;;;;;5003743;28;20665;-79
2022/08/18 12:48:56;;;;;;;4.78;4.47;;;27.50;49.30;;;;;;5036113;28;20223;-79
2022/08/18 12:51:23;;;;;;;4.80;4.47;;;27.50;49.30;;;;;;5036612;28;20269;-81
2022/08/18 12:53:51;;;;;;;5.07;4.72;;;27.60;49.30;;;;;;5019675;28;20646;-80
2022/08/18 12:56:21;;;;;;;5.38;4.97;;;27.50;49.30;;;;;;5036429;28;20223;-81
2022/08/18 12:58:50;;;;;;;5.28;4.88;;;27.60;49.40;;;;;;5036923;28;20214;-79
2022/08/18 13:01:17;;;;;;;5.05;4.55;;;27.50;49.30;;;;;;5036165;28;20205;-80
2022/08/18 13:03:46;;;;;;;5.15;4.65;;;27.50;49.20;;;;;;5035713;28;20203;-80
2022/08/18 13:06:13;;;;;;;5.10;4.72;;;27.50;49.20;;;;;;5035540;28;20255;-81
2022/08/18 13:08:41;;;;;;;5.30;4.90;;;27.50;49.20;;;;;;5019796;28;20310;-81
2022/08/18 13:11:09;;;;;;;5.10;4.70;;;27.50;49.20;;;;;;5035448;28;20273;-80
2022/08/18 13:13:37;;;;;;;5.35;4.93;;;27.50;49.20;;;;;;5019634;28;20200;-78
2022/08/18 13:16:04;;;;;;;5.07;4.75;;;27.50;49.30;;;;;;5035488;28;20203;-79
2022/08/18 13:18:33;;;;;;;5.13;4.82;;;27.50;49.20;;;;;;5035132;28;20223;-81
2022/08/18 13:21:02;;;;;;;5.07;4.68;;;27.50;49.20;;;;;;5035923;28;20191;-81
2022/08/18 13:23:30;;;;;;;5.03;4.72;;;27.50;49.20;;;;;;5035648;28;20212;-81